Beverly, MA (01915)

5:08 PM EDT on April 25, 2017 (GMT -0400)
Ryal Side Weather | | Change Station

Elev 57 ft 42.55 °N, 70.89 °W | Updated 3 minutes ago

Rain
Rain Mist
45.3 °F
Feels Like 45 °F
N
3.0
Wind Variable Wind from East
Gusts 5.0 mph

Today
High -- | Low -- °F
--% Chance of Precip.
Yesterday
High -- | Low -- °F
Precip. -- in
Pressure 30.22 in
Visibility 1.2 miles
Clouds Overcast 400 ft
Windchill 45 °F
Dew Point 44 °F
Humidity 97%
Rainfall 0.49 in
Snow Depth Not available.
5:46 AM 7:37 PM
Waning Crescent, 1% visible
METAR KBVY 252053Z 04011G16KT 1 1/4SM RA BR OVC004 08/07 A3022 RMK AO2 SLPNO P0015 60041 T00780072 56010
Pressure 30.22 in
Visibility 1.2 miles
Clouds Overcast 400 ft
Windchill 45 °F
Dew Point 44 °F
Humidity 97%
Rainfall 0.49 in
Snow Depth Not available.
5:46 AM 7:37 PM
Waning Crescent, 1% visible
METAR KBVY 252053Z 04011G16KT 1 1/4SM RA BR OVC004 08/07 A3022 RMK AO2 SLPNO P0015 60041 T00780072 56010

Get Severe Weather Alerts

Thanks for signing up!

Be on the lookout for a verification email in your inbox.

You'll start receiving the daily forecast at 8 AM.

×

10-Day Weather Forecast

Almanac

Astronomy

Apr. 25, 2017 Rise Set
Actual Time
Civil Twilight
Nautical Twilight
Astronomical Twilight
Moon
Length of Visible Light
Length of Day
Tomorrow will be .
, % of the Moon is Illuminated

Today's Extremes

State Highs State Lows

Community

WunderPhotos

WunderBlog® & News

Nearby

Air Quality

  Air Quality AQ Index Pollutant
Not available.

Snow Depth

Station Depth Elevation

Earthquake Activity

City Distance Mag. Time & Date
Minimum magnitude displayed is 2.5.

Coastal Water Temperatures

Place Temperature

Stations

Nearby Weather Stations

Station Location Temp. Windchill Dew Point Humidity Wind Precip. Elev Updated Type
                   

Watches & Warnings

There are currently no watches in effect.